Latest Weather Observations for Marree Airport

IDS60801

Issued at 5:11 pm CST Monday 23 May 2022 (issued every 10 minutes, with the page automatically refreshed every 10 minutes)

About weather observations | Map of weather stations | Latest weather observations for SA | Other Formats
Station Details ID: 017126 Name: MARREE AERO Lat: -29.66 Lon: 138.07 Height: 50.0 m
Data from the previous 72 hours. | See also: Recent months at Marree Airport
Date/Time
CST
Temp
°C
App
Temp
°C
Dew
Point
°C
Rel
Hum
%
Delta-T
°C
Wind Press
QNH
hPa
Press
MSL
hPa
Rain since
9am
mm
Dir  Spd
km/h
Gust
km/h
Spd
kts
Gust
kts
23/05:00pm 22.0 19.1 9.5 45 6.7 ENE 15 20 8 11 1020.9 1020.9 0.0
23/04:30pm 22.7 19.8 9.5 43 7.1 ENE 15 22 8 12 1020.8 1020.8 0.0
23/04:00pm 23.0 18.6 9.0 41 7.5 ENE 22 30 12 16 1020.8 1020.8 0.0
23/03:30pm 23.2 19.2 9.2 41 7.5 E 20 28 11 15 1020.8 1020.8 0.0
23/03:00pm 23.3 20.1 10.0 43 7.3 ENE 17 26 9 14 1021.0 1021.0 0.0
23/02:30pm 22.8 18.9 9.6 43 7.1 ENE 20 28 11 15 1021.3 1021.3 0.0
23/02:00pm 22.8 19.6 9.9 44 7.0 ENE 17 26 9 14 1021.4 1021.4 0.0
23/01:30pm 23.0 19.8 10.1 44 7.0 NE 17 24 9 13 1021.6 1021.6 0.0
23/01:00pm 22.1 18.5 10.6 48 6.3 NE 20 26 11 14 1022.0 1022.0 0.0
23/12:30pm 22.9 19.4 10.3 45 6.9 NE 19 28 10 15 1022.4 1022.4 0.0
23/12:00pm 22.6 18.9 10.1 45 6.8 ENE 20 30 11 16 1022.8 1022.8 0.0
23/11:30am 22.4 18.7 10.2 46 6.6 NE 20 33 11 18 1023.4 1023.4 0.0
23/11:00am 21.8 17.4 10.3 48 6.3 NE 24 30 13 16 1023.5 1023.5 0.0
23/10:30am 21.2 17.5 11.5 54 5.4 NE 22 26 12 14 1023.7 1023.7 0.0
23/10:00am 19.8 17.2 12.1 61 4.3 ENE 17 24 9 13 1024.0 1024.0 0.0
23/09:30am 18.5 15.6 12.3 67 3.4 ENE 19 22 10 12 1024.0 1024.0 0.0
23/09:00am 15.7 14.3 12.1 79 2.0 ESE 11 15 6 8 1024.0 1024.0 0.0
23/08:30am 13.7 11.5 10.9 83 1.5 SE 13 17 7 9 1023.8 1023.8 0.0
23/08:00am 12.2 10.3 10.4 89 0.9 SSE 11 13 6 7 1023.9 1023.9 0.0
23/07:30am 11.0 8.5 9.8 92 0.6 SSE 13 15 7 8 1023.4 1023.4 0.0
23/07:00am 10.5 7.5 9.3 92 0.6 SE 15 15 8 8 1023.2 1023.2 0.0
23/06:30am 11.3 8.4 9.7 90 0.8 SE 15 17 8 9 1023.0 1023.0 0.0
23/06:00am 12.2 9.1 10.3 88 1.0 SSE 17 20 9 11 1022.8 1022.8 0.0
23/05:30am 12.1 9.4 10.3 89 0.9 SSE 15 17 8 9 1022.5 1022.5 0.0
23/05:00am 11.5 8.7 10.1 91 0.7 SSE 15 17 8 9 1022.3 1022.3 0.0
23/04:30am 12.1 9.4 10.3 89 0.9 SSE 15 17 8 9 1022.3 1022.3 0.0
23/04:00am 12.2 9.5 10.4 89 0.9 SSE 15 17 8 9 1022.3 1022.3 0.0
23/03:30am 11.9 9.6 10.5 91 0.7 S 13 15 7 8 1022.3 1022.3 0.0
23/03:00am 11.7 9.4 10.4 92 0.7 SSE 13 15 7 8 1022.1 1022.1 0.0
23/02:30am 11.6 9.2 10.2 91 0.7 SSE 13 13 7 7 1022.1 1022.1 0.0
23/02:00am 12.1 9.8 10.3 89 0.9 SSE 13 15 7 8 1022.2 1022.2 0.0
23/01:30am 12.7 9.8 10.9 89 0.9 SSE 17 19 9 10 1022.1 1022.1 0.0
23/01:00am 12.8 10.3 10.9 88 1.0 SSE 15 17 8 9 1022.1 1022.1 0.0
23/12:30am 12.7 10.5 10.8 88 1.0 SE 13 13 7 7 1022.1 1022.1 0.0
23/12:00am 12.9 11.1 10.8 87 1.1 SE 11 13 6 7 1022.3 1022.3 0.0
 
Date/Time
CST
Temp
°C
App
Temp
°C
Dew
Point
°C
Rel
Hum
%
Delta-T
°C
Wind Press
QNH
hPa
Press
MSL
hPa
Rain since
9am
mm
Dir  Spd
km/h
Gust
km/h
Spd
kts
Gust
kts
22/11:30pm 13.0 10.8 10.7 86 1.2 SSE 13 13 7 7 1022.4 1022.4 0.0
22/11:00pm 13.7 11.6 11.0 84 1.4 SE 13 17 7 9 1022.3 1022.3 0.0
22/10:30pm 13.8 11.3 11.0 83 1.5 SE 15 15 8 8 1022.5 1022.5 0.0
22/10:00pm 14.3 12.2 11.3 82 1.6 SE 13 15 7 8 1022.7 1022.7 0.0
22/09:30pm 14.2 12.1 11.0 81 1.7 SE 13 13 7 7 1022.7 1022.7 0.0
22/09:00pm 15.0 13.0 11.4 79 1.9 SE 13 15 7 8 1022.4 1022.4 0.0
22/08:30pm 15.4 13.4 11.6 78 2.0 SE 13 15 7 8 1022.2 1022.2 0.0
22/08:00pm 16.2 14.2 11.6 74 2.5 ESE 13 15 7 8 1022.0 1022.0 0.0
22/07:30pm 17.4 14.8 11.9 70 3.0 E 17 20 9 11 1021.9 1021.9 0.0
22/07:00pm 18.2 15.2 12.0 67 3.4 E 19 22 10 12 1021.6 1021.6 0.0
22/06:30pm 18.2 16.2 11.5 65 3.7 ESE 13 17 7 9 1021.1 1021.1 0.0
22/06:00pm 18.9 17.0 11.7 63 4.0 E 13 17 7 9 1020.8 1020.8 0.0
22/05:30pm 20.5 17.3 11.4 56 5.0 ENE 19 20 10 11 1020.7 1020.7 0.0
22/05:00pm 21.2 18.0 11.2 53 5.5 NE 19 22 10 12 1020.5 1020.5 0.0
22/04:30pm 22.0 18.6 11.4 51 5.9 ENE 20 24 11 13 1020.4 1020.3 0.0
22/04:00pm 22.2 19.6 11.9 52 5.8 E 17 20 9 11 1020.4 1020.3 0.0
22/03:30pm 21.9 18.1 11.0 50 6.0 E 22 28 12 15 1020.4 1020.3 0.0
22/03:00pm 22.6 19.2 11.4 49 6.2 E 20 26 11 14 1020.4 1020.3 0.0
22/02:30pm 21.8 18.6 11.8 53 5.6 E 20 26 11 14 1020.5 1020.5 0.0
22/02:00pm 21.8 18.6 11.8 53 5.6 E 20 26 11 14 1020.7 1020.7 0.0
22/01:30pm 23.0 20.6 12.6 52 5.9 ENE 17 30 9 16 1020.9 1020.9 0.0
22/01:00pm 22.4 19.9 12.4 53 5.7 ENE 17 24 9 13 1021.4 1021.4 0.0
22/12:30pm 22.1 19.3 12.6 55 5.4 ENE 19 24 10 13 1021.8 1021.8 0.0
22/12:00pm 21.6 18.7 13.0 58 4.9 ENE 20 26 11 14 1022.5 1022.5 0.0
22/11:30am 21.2 17.7 12.3 57 5.0 ENE 22 30 12 16 1023.1 1023.1 0.0
22/11:00am 20.5 17.1 12.5 60 4.5 ENE 22 32 12 17 1023.5 1023.5 0.0
22/10:30am 19.4 15.1 12.2 63 4.0 E 26 33 14 18 1023.7 1023.7 0.0
22/10:00am 18.7 15.1 12.0 65 3.7 E 22 32 12 17 1023.9 1023.9 0.0
22/09:30am 17.5 14.2 11.5 68 3.3 ESE 20 24 11 13 1024.0 1024.0 0.0
22/09:00am 15.7 12.9 11.3 75 2.4 ESE 17 20 9 11 1023.8 1023.8 0.0
22/08:30am 14.6 11.8 11.2 80 1.8 SE 17 22 9 12 1023.5 1023.5 0.0
22/08:00am 13.0 10.7 10.5 85 1.3 SSE 13 17 7 9 1023.5 1023.5 0.0
22/07:30am 11.7 9.3 9.9 89 0.9 SSE 13 17 7 9 1023.3 1023.3 0.0
22/07:00am 11.3 8.4 9.7 90 0.8 SSE 15 17 8 9 1023.1 1023.1 0.0
22/06:30am 10.7 7.7 9.3 91 0.7 SSE 15 17 8 9 1022.9 1022.9 0.0
22/06:00am 10.8 7.8 9.2 90 0.8 SSE 15 19 8 10 1022.7 1022.7 0.0
22/05:30am 10.8 7.4 9.2 90 0.8 SSE 17 19 9 10 1022.5 1022.5 0.0
22/05:00am 10.8 7.8 9.2 90 0.8 SSE 15 19 8 10 1022.5 1022.5 0.0
22/04:30am 10.7 7.3 9.1 90 0.8 SE 17 19 9 10 1022.4 1022.4 0.0
22/04:00am 10.9 7.9 9.3 90 0.8 SE 15 19 8 10 1022.5 1022.5 0.0
22/03:30am 11.3 8.0 9.6 89 0.9 SSE 17 20 9 11 1022.5 1022.5 0.0
22/03:00am 11.0 7.6 9.3 89 0.8 SSE 17 20 9 11 1022.7 1022.7 0.0
22/02:30am 10.8 7.8 9.2 90 0.8 SSE 15 17 8 9 1023.0 1023.0 0.0
22/02:00am 11.4 9.3 9.8 90 0.8 SE 11 13 6 7 1023.5 1023.5 0.0
22/01:30am 11.7 9.3 9.9 89 0.9 SE 13 15 7 8 1023.5 1023.5 0.0
22/01:00am 11.8 8.5 9.5 86 1.2 SE 17 19 9 10 1023.3 1023.3 0.0
22/12:30am 11.9 9.2 9.1 83 1.4 SE 13 15 7 8 1023.6 1023.6 0.0
22/12:00am 12.4 9.4 9.2 81 1.6 SE 15 17 8 9 1023.7 1023.7 0.0
 
Date/Time
CST
Temp
°C
App
Temp
°C
Dew
Point
°C
Rel
Hum
%
Delta-T
°C
Wind Press
QNH
hPa
Press
MSL
hPa
Rain since
9am
mm
Dir  Spd
km/h
Gust
km/h
Spd
kts
Gust
kts
21/11:30pm 12.0 9.3 8.8 81 1.6 ESE 13 15 7 8 1023.7 1023.7 0.0
21/11:00pm 11.8 9.0 8.5 80 1.6 SE 13 15 7 8 1023.8 1023.8 0.0
21/10:30pm 12.5 9.8 8.8 78 1.8 SE 13 15 7 8 1023.9 1023.9 0.0
21/10:00pm 13.6 10.6 9.1 74 2.3 ESE 15 17 8 9 1023.8 1023.8 0.0
21/09:30pm 13.6 10.5 8.9 73 2.4 ESE 15 19 8 10 1023.9 1023.9 0.0
21/09:00pm 13.6 10.8 8.7 72 2.5 ESE 13 13 7 7 1024.0 1024.0 0.0
21/08:30pm 14.2 11.5 8.8 70 2.7 SE 13 15 7 8 1024.0 1024.0 0.0
21/08:00pm 15.3 12.6 9.0 66 3.2 ESE 13 15 7 8 1023.9 1023.9 0.0
21/07:30pm 16.3 13.2 9.0 62 3.7 ESE 15 19 8 10 1023.7 1023.7 0.0
21/07:00pm 16.7 13.2 8.7 59 4.1 ESE 17 20 9 11 1023.4 1023.4 0.0
21/06:30pm 17.6 15.4 7.9 53 4.9 ESE 9 11 5 6 1023.1 1023.1 0.0
21/06:00pm 18.5 16.1 7.0 47 5.8 SE 9 9 5 5 1022.7 1022.7 0.0
21/05:30pm 19.2 16.7 6.7 44 6.3 SSE 9 11 5 6 1022.4 1022.4 0.0
21/05:00pm 20.8 18.4 5.2 36 7.7 SSE 7 9 4 5 1022.3 1022.3 0.0
21/04:30pm 21.3 18.4 4.8 34 8.1 SSW 9 15 5 8 1022.2 1022.2 0.0
21/04:00pm 21.6 18.1 5.5 35 8.0 SSE 13 20 7 11 1022.1 1022.1 0.0
21/03:30pm 21.6 17.6 4.7 33 8.3 ESE 15 20 8 11 1022.1 1022.1 0.0
21/03:00pm 21.3 17.1 4.0 32 8.3 SSE 15 20 8 11 1022.3 1022.3 0.0
21/02:30pm 21.4 18.0 4.0 32 8.4 SE 11 17 6 9 1022.5 1022.5 0.0
21/02:00pm 21.1 17.4 4.6 34 8.1 ESE 13 19 7 10 1022.7 1022.7 0.0
21/01:30pm 20.3 17.9 4.4 35 7.7 ESE 6 15 3 8 1023.2 1023.2 0.0
21/01:00pm 20.0 16.8 4.9 37 7.4 SE 11 15 6 8 1023.5 1023.5 0.0
21/12:30pm 19.5 16.2 4.4 37 7.2 ESE 11 17 6 9 1024.1 1024.1 0.0
21/12:00pm 19.4 15.6 4.0 36 7.3 E 13 19 7 10 1024.6 1024.6 0.0
21/11:30am 18.8 15.1 4.2 38 6.9 SE 13 19 7 10 1025.0 1025.0 0.0
21/11:00am 18.0 14.3 4.2 40 6.5 SE 13 17 7 9 1025.4 1025.4 0.0
21/10:30am 17.0 13.4 5.0 45 5.7 SSE 13 17 7 9 1025.7 1025.7 0.0
21/10:00am 16.0 12.9 5.6 50 5.0 SSE 11 15 6 8 1026.0 1026.0 0.0
21/09:30am 15.2 11.8 5.7 53 4.5 S 13 17 7 9 1026.1 1026.1 0.0
21/09:00am 14.1 10.7 5.7 57 4.0 S 13 17 7 9 1026.1 1026.1 0.0
21/08:30am 13.0 9.6 5.7 61 3.4 S 13 15 7 8 1026.0 1026.0 0.0
21/08:00am 9.9 6.8 5.5 74 2.0 SSW 11 13 6 7 1025.9 1025.9 0.0
21/07:30am 6.5 3.5 4.0 84 1.1 S 9 9 5 5 1025.7 1025.7 0.0
21/07:00am 6.9 3.9 4.2 83 1.2 S 9 11 5 6 1025.6 1025.6 0.0
21/06:30am 7.0 3.5 3.6 79 1.4 SSE 11 11 6 6 1025.5 1025.5 0.0
21/06:00am 7.3 3.5 3.9 79 1.5 S 13 13 7 7 1025.3 1025.3 0.0
21/05:30am 7.3 3.9 3.9 79 1.5 S 11 13 6 7 1025.3 1025.3 0.0
21/05:00am 7.9 4.6 4.3 78 1.6 S 11 13 6 7 1025.2 1025.2 0.0
21/04:30am 8.0 4.3 4.4 78 1.6 S 13 15 7 8 1025.1 1025.1 0.0
21/04:00am 8.5 5.2 4.5 76 1.8 S 11 13 6 7 1025.0 1025.0 0.0
21/03:30am 9.2 5.9 4.6 73 2.0 SSE 11 13 6 7 1025.1 1025.1 0.0
21/03:00am 9.6 6.3 4.8 72 2.1 SSE 11 11 6 6 1025.3 1025.3 0.0
21/02:30am 11.1 9.9 4.8 65 2.8 CALM 0 0 0 0 1025.5 1025.5 0.0
21/02:00am 11.4 10.3 5.1 65 2.9 CALM 0 0 0 0 1025.6 1025.6 0.0
21/01:30am 11.2 9.1 5.7 69 2.5 SSE 6 7 3 4 1025.7 1025.7 0.0
21/01:00am 11.2 10.3 5.9 70 2.5 CALM 0 0 0 0 1025.9 1025.9 0.0
21/12:30am 11.8 9.4 5.4 65 2.9 SE 7 9 4 5 1025.9 1025.9 0.0
21/12:00am 12.2 9.3 4.9 61 3.3 SSE 9 11 5 6 1025.9 1025.9 0.0
 
Date/Time
CST
Temp
°C
App
Temp
°C
Dew
Point
°C
Rel
Hum
%
Delta-T
°C
Wind Press
QNH
hPa
Press
MSL
hPa
Rain since
9am
mm
Dir  Spd
km/h
Gust
km/h
Spd
kts
Gust
kts
20/11:30pm 11.8 8.7 5.4 65 2.9 SSE 11 11 6 6 1025.9 1025.9 0.0
20/11:00pm 11.4 8.6 5.3 66 2.8 S 9 9 5 5 1026.2 1026.2 0.0
20/10:30pm 11.5 8.3 5.2 65 2.9 S 11 13 6 7 1026.2 1026.2 0.0
20/10:00pm 11.7 8.5 5.3 65 3.0 S 11 13 6 7 1026.2 1026.2 0.0
20/09:30pm 12.3 9.5 5.0 61 3.3 SSE 9 11 5 6 1026.4 1026.4 0.0
20/09:00pm 12.7 9.5 4.9 59 3.6 SSE 11 11 6 6 1026.4 1026.4 0.0
20/08:30pm 12.7 9.5 4.9 59 3.6 SSE 11 11 6 6 1026.2 1026.2 0.0
20/08:00pm 13.0 9.8 4.9 58 3.7 SE 11 13 6 7 1026.0 1026.0 0.0
20/07:30pm 13.8 10.2 4.9 55 4.1 SE 13 15 7 8 1025.8 1025.8 0.0
20/07:00pm 14.0 10.4 4.9 54 4.2 SE 13 15 7 8 1025.5 1025.5 0.0
20/06:30pm 14.3 10.6 4.6 52 4.5 SE 13 13 7 7 1025.3 1025.3 0.0
20/06:00pm 15.0 11.3 4.4 49 4.9 SE 13 15 7 8 1025.2 1025.2 0.0
20/05:30pm 16.7 12.5 3.7 42 6.0 SE 15 20 8 11 1025.0 1025.0 0.0

Other formats

Comma delimited format used in spreadsheet applications
http://www.bom.gov.au/fwo/IDS60801/IDS60801.95480.axf

JavaScript Object Notation format (JSON) in row-major order
http://www.bom.gov.au/fwo/IDS60801/IDS60801.95480.json

Data quality

Most of these data are generated automatically and are frequently updated. Quality checks on data are not normally performed. It is possible for incorrect values to appear. Refer to information at About Latest Weather Observations and please check the disclaimer before using these data.